Time;durP1;ratioP1;P1;durP2;ratioP2;P2;SDS_P1;SDS_P2;PMS_P1;PMS_P2;Temp;Humidity;BMP_temperature;BMP_pressure;BME280_temperature;BME280_humidity;BME280_pressure;Samples;Min_cycle;Max_cycle;Signal;HPM_P1;HPM_P2
2023/05/27 00:00:12;;;;;;;;;;;22.50;64.10;;;;;;5075903;28;19904;-68
2023/05/27 00:02:38;;;;;;;;;;;22.50;64.00;;;;;;5094700;28;19904;-68
2023/05/27 00:05:03;;;;;;;;;;;22.50;64.00;;;;;;5095485;28;20342;-68
2023/05/27 00:07:29;;;;;;;;;;;22.50;63.90;;;;;;5094552;28;19904;-69
2023/05/27 00:09:54;;;;;;;;;;;22.50;64.00;;;;;;5094633;28;19922;-69
2023/05/27 00:12:20;;;;;;;;;;;22.50;64.10;;;;;;5094536;28;19904;-69
2023/05/27 00:14:46;;;;;;;;;;;22.50;64.00;;;;;;5094947;28;19958;-70
2023/05/27 00:17:14;;;;;;;;;;;22.50;64.00;;;;;;5094138;28;19951;-69
2023/05/27 00:19:40;;;;;;;;;;;22.50;64.10;;;;;;5094456;28;19957;-69
2023/05/27 00:22:06;;;;;;;;;;;22.40;64.20;;;;;;5094581;28;20354;-69
2023/05/27 00:24:33;;;;;;;;;;;22.40;64.20;;;;;;5094348;28;20366;-69
2023/05/27 00:26:58;;;;;;;;;;;22.40;64.40;;;;;;5094165;28;19911;-69
2023/05/27 00:29:24;;;;;;;;;;;22.40;64.20;;;;;;5094105;28;19920;-69
2023/05/27 00:31:50;;;;;;;;;;;22.40;64.30;;;;;;5075895;28;19904;-69
2023/05/27 00:34:15;;;;;;;;;;;22.40;64.50;;;;;;5076190;28;20054;-69
2023/05/27 00:36:41;;;;;;;;;;;22.30;64.30;;;;;;5094203;28;20346;-69
2023/05/27 00:39:07;;;;;;;;;;;22.30;64.30;;;;;;5094228;28;19904;-69
2023/05/27 00:41:32;;;;;;;;;;;22.30;64.30;;;;;;5076306;28;19910;-69
2023/05/27 00:43:58;;;;;;;;;;;22.30;64.30;;;;;;5094303;28;20318;-69
2023/05/27 00:46:23;;;;;;;;;;;22.30;64.90;;;;;;5075802;28;20006;-69
2023/05/27 00:48:49;;;;;;;;;;;22.30;64.30;;;;;;5094277;28;19994;-69
2023/05/27 00:51:15;;;;;;;;;;;22.30;64.40;;;;;;5076535;28;20384;-69
2023/05/27 00:53:41;;;;;;;;;;;22.30;64.50;;;;;;5094239;28;19904;-69
2023/05/27 00:56:07;;;;;;;;;;;22.30;64.80;;;;;;5093942;28;20273;-70
2023/05/27 00:58:33;;;;;;;;;;;22.30;64.60;;;;;;5094003;28;20346;-69
2023/05/27 01:00:59;;;;;;;;;;;22.30;64.40;;;;;;5094124;28;19957;-69
2023/05/27 01:03:25;;;;;;;;;;;22.30;64.30;;;;;;5076404;28;19911;-69
2023/05/27 01:05:55;;;;;;;;;;;22.30;64.20;;;;;;5094722;28;20369;-69
2023/05/27 01:08:45;;;;;;;;;;;22.30;64.40;;;;;;5094099;28;19904;-69
2023/05/27 01:11:12;;;;;;;;;;;22.30;64.50;;;;;;5075961;28;19920;-69
2023/05/27 01:13:46;;;;;;;;;;;22.30;64.30;;;;;;5098035;28;19907;-69
2023/05/27 01:16:12;;;;;;;;;;;22.30;64.30;;;;;;5097877;28;19908;-69
2023/05/27 01:18:40;;;;;;;;;;;22.30;64.30;;;;;;5098046;28;19958;-69
2023/05/27 01:21:09;;;;;;;;;;;22.30;64.20;;;;;;5098019;28;19955;-69
2023/05/27 01:23:38;;;;;;;;;;;22.30;64.30;;;;;;5097811;28;20258;-69
2023/05/27 01:26:07;;;;;;;;;;;22.30;64.40;;;;;;5097846;28;19904;-69
2023/05/27 01:28:32;;;;;;;;;;;22.30;64.30;;;;;;5097794;28;19908;-69
2023/05/27 01:31:04;;;;;;;;;;;22.30;64.30;;;;;;5097784;28;20011;-69
2023/05/27 01:33:32;;;;;;;;;;;22.20;64.30;;;;;;5079460;28;20354;-69
2023/05/27 01:36:01;;;;;;;;;;;22.30;64.30;;;;;;5097932;28;20338;-69
2023/05/27 01:38:28;;;;;;;;;;;22.20;64.20;;;;;;5097241;28;19911;-69
2023/05/27 01:40:54;;;;;;;;;;;22.20;64.20;;;;;;5097690;28;19989;-69
2023/05/27 01:43:20;;;;;;;;;;;22.30;64.30;;;;;;5079374;28;19951;-69
2023/05/27 01:45:45;;;;;;;;;;;22.20;64.20;;;;;;5097390;28;19908;-69
2023/05/27 01:48:11;;;;;;;;;;;22.20;64.20;;;;;;5097704;28;20006;-70
2023/05/27 01:50:36;;;;;;;;;;;22.20;64.20;;;;;;5097101;28;19963;-69
2023/05/27 01:53:03;;;;;;;;;;;22.30;64.20;;;;;;5079002;28;19904;-69
2023/05/27 01:55:29;;;;;;;;;;;22.30;64.10;;;;;;5097334;28;19949;-69
2023/05/27 01:57:54;;;;;;;;;;;22.30;64.00;;;;;;5097183;28;19908;-69
2023/05/27 02:00:20;;;;;;;;;;;22.30;63.90;;;;;;5096984;28;20003;-69
2023/05/27 02:02:45;;;;;;;;;;;22.30;63.90;;;;;;5097121;28;20041;-69
2023/05/27 02:05:11;;;;;;;;;;;22.30;63.90;;;;;;5096987;28;20365;-69
2023/05/27 02:07:36;;;;;;;;;;;22.30;63.80;;;;;;5096912;28;19904;-69
2023/05/27 02:10:02;;;;;;;;;;;22.30;63.80;;;;;;5096904;28;19912;-69
2023/05/27 02:12:27;;;;;;;;;;;22.20;63.80;;;;;;5096939;28;19911;-69
2023/05/27 02:14:53;;;;;;;;;;;22.20;63.90;;;;;;5096626;28;19998;-69
2023/05/27 02:17:18;;;;;;;;;;;22.20;63.90;;;;;;5096726;28;20337;-69
2023/05/27 02:19:45;;;;;;;;;;;22.20;63.80;;;;;;5096574;28;19903;-69
2023/05/27 02:22:10;;;;;;;;;;;22.20;63.90;;;;;;5096428;28;19974;-69
2023/05/27 02:24:36;;;;;;;;;;;22.20;63.90;;;;;;5096042;28;20003;-69
2023/05/27 02:27:02;;;;;;;;;;;22.20;63.90;;;;;;5096555;28;19912;-69
2023/05/27 02:29:27;;;;;;;;;;;22.20;63.80;;;;;;5078402;28;19941;-69
2023/05/27 02:31:53;;;;;;;;;;;22.30;63.80;;;;;;5096488;28;19910;-69
2023/05/27 02:34:18;;;;;;;;;;;22.20;63.80;;;;;;5096533;28;19904;-69
2023/05/27 02:36:44;;;;;;;;;;;22.30;63.80;;;;;;5096423;28;20304;-69
2023/05/27 02:39:10;;;;;;;;;;;22.30;63.80;;;;;;5096432;28;20265;-69
2023/05/27 02:41:35;;;;;;;;;;;22.30;63.70;;;;;;5078306;28;19961;-69
2023/05/27 02:44:02;;;;;;;;;;;22.30;63.80;;;;;;5096321;28;19903;-69
2023/05/27 02:46:27;;;;;;;;;;;22.20;63.60;;;;;;5096123;28;19953;-69
2023/05/27 02:48:53;;;;;;;;;;;22.20;63.90;;;;;;5096025;28;20407;-69
2023/05/27 02:51:18;;;;;;;;;;;22.10;64.00;;;;;;5095790;28;19919;-69
2023/05/27 02:53:44;;;;;;;;;;;22.10;64.00;;;;;;5095890;28;19995;-69
2023/05/27 02:56:10;;;;;;;;;;;22.10;64.40;;;;;;5096106;28;20007;-69
2023/05/27 02:58:35;;;;;;;;;;;22.10;64.40;;;;;;5095863;28;19955;-69
2023/05/27 03:01:01;;;;;;;;;;;22.10;64.80;;;;;;5096089;28;19943;-69
2023/05/27 03:03:26;;;;;;;;;;;22.10;64.40;;;;;;5095684;28;19910;-69
2023/05/27 03:05:52;;;;;;;;;;;22.10;64.40;;;;;;5095551;28;19951;-68
2023/05/27 03:08:17;;;;;;;;;;;22.10;64.50;;;;;;5095824;28;19912;-68
2023/05/27 03:10:43;;;;;;;;;;;22.10;64.40;;;;;;5095808;28;19934;-68
2023/05/27 03:13:08;;;;;;;;;;;22.20;64.80;;;;;;5095536;28;19986;-69
2023/05/27 03:15:35;;;;;;;;;;;22.10;64.20;;;;;;5095711;28;19911;-68
2023/05/27 03:18:01;;;;;;;;;;;22.10;64.30;;;;;;5095420;28;19923;-69
2023/05/27 03:20:27;;;;;;;;;;;22.20;64.30;;;;;;5095510;28;20346;-68
2023/05/27 03:22:53;;;;;;;;;;;22.20;64.30;;;;;;5095582;28;19915;-68
2023/05/27 03:25:18;;;;;;;;;;;22.20;64.30;;;;;;5077419;28;19904;-69
2023/05/27 03:27:44;;;;;;;;;;;22.20;64.30;;;;;;5095706;28;19911;-68
2023/05/27 03:30:11;;;;;;;;;;;22.30;64.30;;;;;;5095344;28;20320;-68
2023/05/27 03:32:36;;;;;;;;;;;22.30;64.10;;;;;;5077175;28;19904;-68
2023/05/27 03:35:02;;;;;;;;;;;22.30;64.00;;;;;;5094287;28;19957;-69
2023/05/27 03:37:27;;;;;;;;;;;22.40;64.60;;;;;;5077308;28;19947;-68
2023/05/27 03:39:53;;;;;;;;;;;22.40;64.00;;;;;;5095054;28;19904;-68
2023/05/27 03:42:18;;;;;;;;;;;22.40;64.00;;;;;;5094922;28;19951;-68
2023/05/27 03:44:44;;;;;;;;;;;22.40;63.90;;;;;;5095292;28;19947;-69
2023/05/27 03:47:09;;;;;;;;;;;22.40;63.80;;;;;;5094938;28;20353;-69
2023/05/27 03:49:35;;;;;;;;;;;22.50;63.70;;;;;;5094919;28;19916;-69
2023/05/27 03:52:00;;;;;;;;;;;22.50;63.30;;;;;;5094740;28;20243;-68
2023/05/27 03:54:26;;;;;;;;;;;22.40;63.50;;;;;;5094909;28;20246;-68
2023/05/27 03:56:52;;;;;;;;;;;22.40;63.50;;;;;;5076371;28;19904;-69
2023/05/27 03:59:20;;;;;;;;;;;22.40;63.60;;;;;;5094856;28;19908;-69
2023/05/27 04:01:47;;;;;;;;;;;22.40;63.90;;;;;;5076435;28;19958;-69
2023/05/27 04:04:12;;;;;;;;;;;22.50;63.70;;;;;;5094618;28;19904;-69
2023/05/27 04:06:38;;;;;;;;;;;22.50;63.40;;;;;;5093472;28;19957;-69
2023/05/27 04:09:04;;;;;;;;;;;22.50;63.40;;;;;;5094513;28;19903;-69
2023/05/27 04:11:30;;;;;;;;;;;22.60;63.50;;;;;;5094482;28;20020;-69
2023/05/27 04:13:56;;;;;;;;;;;22.60;63.30;;;;;;5093063;28;19954;-69
2023/05/27 04:16:24;;;;;;;;;;;22.70;63.20;;;;;;5094477;28;19998;-69
2023/05/27 04:18:51;;;;;;;;;;;22.70;63.10;;;;;;5057712;28;19916;-69
2023/05/27 04:21:17;;;;;;;;;;;22.80;63.00;;;;;;5074504;28;19904;-68
2023/05/27 04:23:42;;;;;;;;;;;22.80;62.90;;;;;;5074238;28;19957;-68
2023/05/27 04:26:08;;;;;;;;;;;22.80;62.90;;;;;;5074419;28;19911;-68
2023/05/27 04:28:35;;;;;;;;;;;22.90;62.90;;;;;;5074518;28;20339;-68
2023/05/27 04:31:00;;;;;;;;;;;23.00;62.80;;;;;;5055657;28;19941;-69
2023/05/27 04:33:26;;;;;;;;;;;23.00;62.70;;;;;;5074137;28;19951;-68
2023/05/27 04:35:53;;;;;;;;;;;23.00;62.50;;;;;;5056005;28;20295;-68
2023/05/27 04:38:21;;;;;;;;;;;23.00;62.50;;;;;;5073931;28;20312;-68
2023/05/27 04:40:52;;;;;;;;;;;23.10;62.50;;;;;;5073749;28;19904;-69
2023/05/27 04:43:21;;;;;;;;;;;23.10;62.40;;;;;;5055933;28;19916;-69
2023/05/27 04:45:47;;;;;;;;;;;23.10;62.20;;;;;;5073845;28;20424;-69
2023/05/27 04:48:13;;;;;;;;;;;23.20;62.10;;;;;;5059722;28;19947;-69
2023/05/27 04:50:40;;;;;;;;;;;23.20;62.10;;;;;;5077963;28;19958;-69
2023/05/27 04:53:06;;;;;;;;;;;23.10;62.10;;;;;;5059977;28;19915;-69
2023/05/27 04:55:32;;;;;;;;;;;23.10;61.90;;;;;;5078084;28;19944;-69
2023/05/27 04:57:58;;;;;;;;;;;23.10;62.00;;;;;;5060236;28;19908;-69
2023/05/27 05:00:35;;;;;;;;;;;23.10;62.00;;;;;;5077485;28;19995;-69
2023/05/27 05:03:01;;;;;;;;;;;23.10;62.00;;;;;;5078326;28;19905;-69
2023/05/27 05:05:27;;;;;;;;;;;23.10;62.00;;;;;;5077943;28;19991;-69
2023/05/27 05:07:53;;;;;;;;;;;23.10;61.90;;;;;;5077788;28;19905;-69
2023/05/27 05:10:19;;;;;;;;;;;23.10;62.00;;;;;;5077474;28;19916;-69
2023/05/27 05:12:44;;;;;;;;;;;23.10;61.90;;;;;;5077712;28;20270;-69
2023/05/27 05:15:10;;;;;;;;;;;23.10;61.70;;;;;;5077531;28;19904;-69
2023/05/27 05:17:35;;;;;;;;;;;23.10;61.90;;;;;;5067535;28;20365;-69
2023/05/27 05:20:03;;;;;;;;;;;23.10;61.70;;;;;;5097871;28;19923;-69
2023/05/27 05:22:29;;;;;;;;;;;23.10;61.80;;;;;;5097648;28;20262;-70
2023/05/27 05:24:54;;;;;;;;;;;23.10;61.80;;;;;;5097899;28;19908;-69
2023/05/27 05:27:20;;;;;;;;;;;23.10;61.80;;;;;;5097958;28;20334;-69
2023/05/27 05:29:45;;;;;;;;;;;23.20;61.80;;;;;;5097454;28;19927;-69
2023/05/27 05:32:11;;;;;;;;;;;23.20;61.80;;;;;;5079376;28;20362;-69
2023/05/27 05:34:37;;;;;;;;;;;23.30;61.70;;;;;;5079333;28;19927;-69
2023/05/27 05:37:03;;;;;;;;;;;23.30;61.70;;;;;;5097242;28;20381;-69
2023/05/27 05:39:29;;;;;;;;;;;23.30;62.20;;;;;;5097252;28;19904;-69
2023/05/27 05:41:57;;;;;;;;;;;23.40;61.40;;;;;;5097247;28;19904;-69
2023/05/27 05:44:23;;;;;;;;;;;23.40;61.40;;;;;;5097450;28;19908;-69
2023/05/27 05:46:48;;;;;;;;;;;23.40;61.40;;;;;;5097064;28;19911;-68
2023/05/27 05:49:14;;;;;;;;;;;23.40;61.30;;;;;;5097282;28;19904;-70
2023/05/27 05:51:40;;;;;;;;;;;23.40;61.20;;;;;;5079304;28;20278;-70
2023/05/27 05:54:05;;;;;;;;;;;23.40;61.30;;;;;;5097132;28;20378;-70
2023/05/27 05:56:31;;;;;;;;;;;23.40;61.20;;;;;;5097153;28;19971;-70
2023/05/27 05:58:57;;;;;;;;;;;23.40;61.30;;;;;;5095865;28;19912;-69
2023/05/27 06:01:23;;;;;;;;;;;23.40;61.40;;;;;;5096921;28;20270;-70
2023/05/27 06:03:48;;;;;;;;;;;23.40;61.40;;;;;;5078624;28;19904;-69
2023/05/27 06:06:14;;;;;;;;;;;23.40;61.30;;;;;;5097022;28;20270;-69
2023/05/27 06:08:40;;;;;;;;;;;23.40;61.30;;;;;;5096988;28;20354;-70
2023/05/27 06:11:06;;;;;;;;;;;23.50;61.30;;;;;;5078235;28;20014;-70
2023/05/27 06:13:31;;;;;;;;;;;23.50;61.10;;;;;;5096235;28;19914;-68
2023/05/27 06:15:57;;;;;;;;;;;23.50;61.20;;;;;;5096490;28;20414;-68
2023/05/27 06:18:22;;;;;;;;;;;23.50;61.20;;;;;;5096607;28;19923;-68
2023/05/27 06:20:48;;;;;;;;;;;23.50;61.20;;;;;;5096138;28;19911;-68
2023/05/27 06:23:13;;;;;;;;;;;23.50;61.10;;;;;;5096326;28;19908;-68
2023/05/27 06:25:39;;;;;;;;;;;23.50;61.10;;;;;;5096423;28;19947;-69
2023/05/27 06:28:05;;;;;;;;;;;23.50;61.10;;;;;;5096278;28;19908;-68
2023/05/27 06:30:31;;;;;;;;;;;23.50;60.90;;;;;;5096235;28;19923;-69
2023/05/27 06:32:57;;;;;;;;;;;23.50;60.90;;;;;;5096363;28;20258;-68
2023/05/27 06:35:22;;;;;;;;;;;23.50;60.80;;;;;;5096252;28;19912;-68
2023/05/27 06:37:48;;;;;;;;;;;23.60;60.90;;;;;;5096105;28;20322;-68
2023/05/27 06:40:14;;;;;;;;;;;23.60;60.90;;;;;;5095769;28;19910;-69
2023/05/27 06:42:39;;;;;;;;;;;23.60;60.90;;;;;;5095719;28;19950;-68
2023/05/27 06:45:05;;;;;;;;;;;23.60;60.90;;;;;;5096162;28;19933;-69
2023/05/27 06:47:31;;;;;;;;;;;23.70;60.90;;;;;;5095836;28;19926;-69
2023/05/27 06:49:56;;;;;;;;;;;23.70;60.90;;;;;;5095728;28;19912;-68
2023/05/27 06:52:21;;;;;;;;;;;23.70;60.80;;;;;;5096081;28;19915;-68
2023/05/27 06:54:47;;;;;;;;;;;23.70;60.80;;;;;;5077910;28;19903;-69
2023/05/27 06:57:13;;;;;;;;;;;23.80;60.70;;;;;;5077753;28;20381;-68
2023/05/27 06:59:39;;;;;;;;;;;23.80;60.70;;;;;;5096110;28;19939;-69
2023/05/27 07:02:05;;;;;;;;;;;23.80;60.60;;;;;;5096015;28;19911;-69
2023/05/27 07:04:31;;;;;;;;;;;23.80;60.60;;;;;;5095588;28;19904;-68
2023/05/27 07:06:56;;;;;;;;;;;23.90;60.70;;;;;;5095548;28;19995;-68
2023/05/27 07:09:22;;;;;;;;;;;23.90;60.70;;;;;;5095349;28;19911;-68
2023/05/27 07:11:47;;;;;;;;;;;23.90;60.60;;;;;;5095269;28;19908;-68
2023/05/27 07:14:13;;;;;;;;;;;23.90;60.40;;;;;;5095559;28;19904;-68
2023/05/27 07:16:38;;;;;;;;;;;23.90;60.40;;;;;;5095468;28;20285;-69
2023/05/27 07:19:04;;;;;;;;;;;23.90;60.40;;;;;;5077588;28;19990;-69
2023/05/27 07:21:29;;;;;;;;;;;23.90;60.50;;;;;;5095297;28;19947;-69
2023/05/27 07:23:58;;;;;;;;;;;24.00;60.40;;;;;;5095460;28;19966;-69
2023/05/27 07:26:25;;;;;;;;;;;24.00;60.40;;;;;;5094980;28;19908;-69
2023/05/27 07:28:50;;;;;;;;;;;24.00;60.40;;;;;;5095543;28;19908;-69
2023/05/27 07:31:16;;;;;;;;;;;24.10;60.30;;;;;;5095287;28;19918;-69
2023/05/27 07:33:41;;;;;;;;;;;24.00;60.20;;;;;;5095134;28;20265;-69
2023/05/27 07:36:07;;;;;;;;;;;24.10;60.20;;;;;;5095296;28;19910;-69
2023/05/27 07:38:33;;;;;;;;;;;24.10;60.20;;;;;;5095212;28;20274;-69
2023/05/27 07:40:58;;;;;;;;;;;24.10;60.10;;;;;;5076587;28;19945;-68
2023/05/27 07:43:24;;;;;;;;;;;24.10;60.00;;;;;;5094869;28;19998;-68
2023/05/27 07:45:50;;;;;;;;;;;24.20;60.10;;;;;;5095399;28;19904;-69
2023/05/27 07:48:15;;;;;;;;;;;24.20;60.00;;;;;;5077110;28;20362;-69
2023/05/27 07:50:41;;;;;;;;;;;24.20;59.90;;;;;;5094854;28;19915;-69
2023/05/27 07:53:06;;;;;;;;;;;24.20;59.90;;;;;;5094682;28;19953;-70
2023/05/27 07:55:32;;;;;;;;;;;24.20;59.70;;;;;;5094736;28;19958;-69
2023/05/27 07:57:57;;;;;;;;;;;24.20;59.80;;;;;;5094861;28;20250;-69
2023/05/27 08:00:23;;;;;;;;;;;24.30;59.70;;;;;;5076949;28;20242;-68
2023/05/27 08:02:48;;;;;;;;;;;24.20;59.70;;;;;;5094465;28;19926;-68
2023/05/27 08:05:14;;;;;;;;;;;24.30;59.80;;;;;;5094434;28;19908;-68
2023/05/27 08:07:39;;;;;;;;;;;24.20;59.70;;;;;;5076260;28;19904;-69
2023/05/27 08:10:05;;;;;;;;;;;24.30;59.70;;;;;;5094297;28;19914;-69
2023/05/27 08:12:31;;;;;;;;;;;24.30;59.70;;;;;;5076365;28;19935;-70
2023/05/27 08:14:56;;;;;;;;;;;24.30;59.40;;;;;;5094478;28;19908;-69
2023/05/27 08:17:22;;;;;;;;;;;24.30;59.50;;;;;;5094431;28;20327;-68
2023/05/27 08:19:47;;;;;;;;;;;24.30;59.40;;;;;;5094032;28;19904;-68
2023/05/27 08:22:13;;;;;;;;;;;24.40;59.20;;;;;;5094176;28;19908;-69
2023/05/27 08:24:38;;;;;;;;;;;24.40;59.30;;;;;;5076150;28;20369;-68
2023/05/27 08:27:06;;;;;;;;;;;24.40;59.00;;;;;;5094537;28;20261;-69
2023/05/27 08:29:32;;;;;;;;;;;24.40;59.00;;;;;;5094132;28;19919;-68
2023/05/27 08:31:58;;;;;;;;;;;24.40;59.70;;;;;;5094468;28;19961;-68
2023/05/27 08:34:25;;;;;;;;;;;24.40;58.90;;;;;;5094171;28;19908;-68
2023/05/27 08:36:51;;;;;;;;;;;24.50;58.80;;;;;;5094085;28;20349;-69
2023/05/27 08:39:16;;;;;;;;;;;24.60;58.70;;;;;;5093917;28;19904;-69
2023/05/27 08:41:42;;;;;;;;;;;24.60;58.60;;;;;;5094002;28;20338;-68
2023/05/27 08:44:08;;;;;;;;;;;24.60;58.30;;;;;;5075922;28;19949;-68
2023/05/27 08:46:34;;;;;;;;;;;24.60;57.80;;;;;;5093774;28;19904;-69
2023/05/27 08:49:00;;;;;;;;;;;24.70;57.80;;;;;;5094055;28;20018;-69
2023/05/27 08:51:26;;;;;;;;;;;24.70;57.30;;;;;;5075498;28;20397;-69
2023/05/27 08:53:52;;;;;;;;;;;24.70;57.30;;;;;;5093887;28;19908;-71
2023/05/27 08:56:22;;;;;;;;;;;24.80;57.30;;;;;;5075815;28;19969;-68
2023/05/27 08:58:47;;;;;;;;;;;24.80;56.80;;;;;;5094053;28;19911;-69
2023/05/27 09:01:15;;;;;;;;;;;24.80;56.60;;;;;;5094088;28;19904;-69
2023/05/27 09:03:41;;;;;;;;;;;24.80;56.60;;;;;;5093966;28;20300;-69
2023/05/27 09:06:07;;;;;;;;;;;24.90;56.60;;;;;;5093750;28;19904;-70
2023/05/27 09:08:32;;;;;;;;;;;24.90;56.80;;;;;;5094161;28;19904;-69
2023/05/27 09:10:58;;;;;;;;;;;25.00;56.80;;;;;;5075735;28;19908;-69
2023/05/27 09:13:27;;;;;;;;;;;25.00;57.10;;;;;;5093897;28;20008;-69
2023/05/27 09:16:00;;;;;;;;;;;25.00;55.80;;;;;;5093643;28;19904;-69
2023/05/27 09:18:33;;;;;;;;;;;25.00;55.90;;;;;;5060800;28;19927;-69
2023/05/27 09:20:58;;;;;;;;;;;25.10;56.00;;;;;;5055182;28;19908;-69
2023/05/27 09:23:25;;;;;;;;;;;25.10;56.00;;;;;;5055790;28;20376;-68
2023/05/27 09:25:51;;;;;;;;;;;25.10;55.60;;;;;;5055530;28;20369;-69
2023/05/27 09:28:20;;;;;;;;;;;25.10;55.80;;;;;;5073836;28;19995;-69
2023/05/27 09:30:47;;;;;;;;;;;25.20;55.20;;;;;;5073231;28;19971;-69
2023/05/27 09:33:12;;;;;;;;;;;25.20;55.70;;;;;;5075514;28;19909;-69
2023/05/27 09:35:40;;;;;;;;;;;25.20;55.70;;;;;;5059257;28;19963;-69
2023/05/27 09:38:06;;;;;;;;;;;25.30;55.30;;;;;;5077173;28;19999;-69
2023/05/27 09:40:32;;;;;;;;;;;25.30;55.10;;;;;;5077108;28;19912;-69
2023/05/27 09:42:57;;;;;;;;;;;25.30;55.20;;;;;;5076911;28;19904;-69
2023/05/27 09:45:23;;;;;;;;;;;25.40;55.10;;;;;;5058725;28;19953;-69
2023/05/27 09:47:49;;;;;;;;;;;25.40;54.90;;;;;;5076704;28;19998;-68
2023/05/27 09:50:15;;;;;;;;;;;25.40;54.20;;;;;;5076735;28;19916;-69
2023/05/27 09:52:41;;;;;;;;;;;25.40;54.70;;;;;;5042295;28;19908;-69
2023/05/27 09:55:12;;;;;;;;;;;25.40;54.50;;;;;;5077077;28;20347;-69
2023/05/27 09:57:38;;;;;;;;;;;25.50;54.30;;;;;;5076801;28;19905;-69
2023/05/27 10:00:17;;;;;;;;;;;25.50;54.70;;;;;;5076451;28;20254;-69
2023/05/27 10:02:45;;;;;;;;;;;25.50;54.60;;;;;;5076687;28;19957;-69
2023/05/27 10:05:12;;;;;;;;;;;25.60;53.50;;;;;;5058743;28;19910;-69
2023/05/27 10:07:38;;;;;;;;;;;25.60;53.70;;;;;;5076675;28;19904;-69
2023/05/27 10:10:08;;;;;;;;;;;25.60;53.70;;;;;;5076509;28;19908;-69
2023/05/27 10:12:35;;;;;;;;;;;25.70;53.30;;;;;;5076606;28;20362;-69
2023/05/27 10:15:01;;;;;;;;;;;25.80;53.30;;;;;;5076109;28;19952;-68
2023/05/27 10:17:26;;;;;;;;;;;25.70;51.90;;;;;;5083112;28;19959;-68
2023/05/27 10:19:57;;;;;;;;;;;25.80;53.80;;;;;;5096666;28;19987;-68
2023/05/27 10:22:23;;;;;;;;;;;25.80;51.80;;;;;;5096844;28;19904;-68
2023/05/27 10:24:50;;;;;;;;;;;25.90;51.80;;;;;;5096418;28;19911;-68
2023/05/27 10:27:15;;;;;;;;;;;25.90;50.40;;;;;;5096679;28;19904;-69
2023/05/27 10:29:41;;;;;;;;;;;25.90;50.80;;;;;;5096343;28;20335;-68
2023/05/27 10:32:07;;;;;;;;;;;26.00;50.00;;;;;;5096768;28;20013;-68
2023/05/27 10:34:36;;;;;;;;;;;25.90;50.80;;;;;;5096410;28;19904;-69
2023/05/27 10:37:02;;;;;;;;;;;26.00;51.30;;;;;;5095994;28;19904;-68
2023/05/27 10:39:27;;;;;;;;;;;25.90;50.20;;;;;;5078212;28;19904;-68
2023/05/27 10:41:54;;;;;;;;;;;26.00;49.90;;;;;;5095980;28;19911;-68
2023/05/27 10:44:29;;;;;;;;;;;26.00;50.00;;;;;;5095149;28;20409;-70
2023/05/27 10:47:04;;;;;;;;;;;25.80;49.60;;;;;;5077895;28;19904;-71
2023/05/27 10:49:36;;;;;;;;;;;25.80;49.60;;;;;;5096124;28;19912;-71
2023/05/27 10:52:12;;;;;;;;;;;25.70;50.50;;;;;;5096071;28;19915;-71
2023/05/27 10:54:38;;;;;;;;;;;25.60;50.80;;;;;;5095663;28;19904;-71
2023/05/27 10:57:04;;;;;;;;;;;25.60;51.30;;;;;;5095711;28;20369;-71
2023/05/27 10:59:39;;;;;;;;;;;25.50;51.10;;;;;;5096077;28;19904;-70
2023/05/27 11:02:05;;;;;;;;;;;25.50;51.30;;;;;;5095792;28;19910;-71
2023/05/27 11:04:34;;;;;;;;;;;25.40;50.90;;;;;;5095598;28;19996;-71
2023/05/27 11:07:00;;;;;;;;;;;25.30;51.30;;;;;;5095663;28;19904;-71
2023/05/27 11:09:26;;;;;;;;;;;25.20;51.20;;;;;;5077417;28;20015;-71
2023/05/27 11:11:52;;;;;;;;;;;25.10;51.40;;;;;;5095881;28;19915;-71
2023/05/27 11:14:20;;;;;;;;;;;25.10;50.50;;;;;;5095738;28;20354;-71
2023/05/27 11:16:51;;;;;;;;;;;25.00;50.40;;;;;;5095224;28;19908;-71
2023/05/27 11:19:18;;;;;;;;;;;24.90;50.60;;;;;;5095373;28;19904;-71
2023/05/27 11:21:47;;;;;;;;;;;24.90;50.50;;;;;;5095130;28;19949;-71
2023/05/27 11:24:16;;;;;;;;;;;24.90;50.60;;;;;;5095718;28;19931;-71
2023/05/27 11:26:43;;;;;;;;;;;24.90;50.50;;;;;;5077217;28;19970;-71
2023/05/27 11:29:08;;;;;;;;;;;25.00;50.40;;;;;;5095500;28;19911;-71
2023/05/27 11:31:35;;;;;;;;;;;25.00;50.00;;;;;;5095149;28;19916;-71
2023/05/27 11:34:01;;;;;;;;;;;25.10;50.90;;;;;;5095012;28;19908;-71
2023/05/27 11:36:27;;;;;;;;;;;25.20;50.10;;;;;;5094700;28;19961;-71
2023/05/27 11:38:54;;;;;;;;;;;25.30;49.80;;;;;;5095115;28;19911;-70
2023/05/27 11:41:21;;;;;;;;;;;25.40;49.30;;;;;;5076921;28;20257;-70
2023/05/27 11:43:50;;;;;;;;;;;25.50;49.10;;;;;;5095036;28;19904;-71
2023/05/27 11:46:16;;;;;;;;;;;25.50;49.00;;;;;;5094957;28;19907;-70
2023/05/27 11:48:42;;;;;;;;;;;25.60;49.00;;;;;;5094712;28;20361;-70
2023/05/27 11:51:08;;;;;;;;;;;25.70;49.10;;;;;;5076657;28;19950;-70
2023/05/27 11:53:35;;;;;;;;;;;25.80;48.80;;;;;;5094864;28;19953;-71
2023/05/27 11:56:00;;;;;;;;;;;25.90;48.80;;;;;;5094029;28;19904;-70
2023/05/27 11:58:26;;;;;;;;;;;26.00;48.90;;;;;;5076655;28;19999;-70
2023/05/27 12:00:51;;;;;;;;;;;26.10;48.90;;;;;;5076687;28;20334;-70
2023/05/27 12:03:17;;;;;;;;;;;26.20;48.80;;;;;;5076550;28;19957;-70
2023/05/27 12:05:42;;;;;;;;;;;26.30;48.70;;;;;;5095261;28;19944;-70
2023/05/27 12:08:08;;;;;;;;;;;26.40;49.10;;;;;;5076927;28;19990;-70
2023/05/27 12:10:33;;;;;;;;;;;26.50;48.50;;;;;;5094546;28;19908;-71
2023/05/27 12:13:06;;;;;;;;;;;26.60;48.40;;;;;;5076517;28;19962;-70
2023/05/27 12:15:32;;;;;;;;;;;26.60;48.40;;;;;;5094356;28;19958;-71
2023/05/27 12:17:58;;;;;;;;;;;26.70;47.80;;;;;;5094372;28;19924;-70
2023/05/27 12:20:28;;;;;;;;;;;26.70;47.50;;;;;;5094575;28;19904;-70
2023/05/27 12:22:53;;;;;;;;;;;26.70;47.60;;;;;;5094119;28;19936;-70
2023/05/27 12:25:19;;;;;;;;;;;26.70;47.50;;;;;;5094196;28;19908;-70
2023/05/27 12:27:45;;;;;;;;;;;26.80;47.50;;;;;;5093869;28;19911;-70
2023/05/27 12:30:11;;;;;;;;;;;26.90;47.80;;;;;;5094059;28;20018;-71
2023/05/27 12:32:36;;;;;;;;;;;27.00;47.50;;;;;;5093749;28;20032;-71
2023/05/27 12:35:02;;;;;;;;;;;27.00;46.90;;;;;;5094405;28;20352;-71
2023/05/27 12:37:27;;;;;;;;;;;27.10;47.10;;;;;;5093932;28;19904;-71
2023/05/27 12:39:53;;;;;;;;;;;27.10;46.70;;;;;;5093872;28;19904;-71
2023/05/27 12:42:18;;;;;;;;;;;27.20;46.80;;;;;;5093946;28;19907;-71
2023/05/27 12:44:44;;;;;;;;;;;27.20;46.70;;;;;;5094268;28;19910;-71
2023/05/27 12:47:09;;;;;;;;;;;27.30;46.70;;;;;;5093863;28;19904;-71
2023/05/27 12:49:36;;;;;;;;;;;27.30;46.80;;;;;;5093835;28;19924;-71
2023/05/27 12:52:02;;;;;;;;;;;27.40;46.90;;;;;;5093855;28;20393;-71
2023/05/27 12:54:28;;;;;;;;;;;27.50;46.70;;;;;;5094053;28;19911;-71
2023/05/27 12:56:54;;;;;;;;;;;27.60;46.50;;;;;;5093716;28;20329;-71
2023/05/27 12:59:20;;;;;;;;;;;27.70;46.60;;;;;;5094521;28;19950;-71
2023/05/27 13:01:45;;;;;;;;;;;27.80;46.30;;;;;;5075683;28;19907;-71
2023/05/27 13:04:12;;;;;;;;;;;28.00;46.20;;;;;;5093905;28;19911;-71
2023/05/27 13:06:37;;;;;;;;;;;28.10;46.30;;;;;;5093478;28;19905;-71
2023/05/27 13:09:04;;;;;;;;;;;28.30;46.70;;;;;;5079126;28;19904;-71
2023/05/27 13:11:30;;;;;;;;;;;28.40;46.70;;;;;;5079554;28;19907;-71
2023/05/27 13:13:55;;;;;;;;;;;28.50;46.00;;;;;;5097656;28;20312;-71
2023/05/27 13:16:21;;;;;;;;;;;28.50;45.20;;;;;;5097660;28;19998;-71
2023/05/27 13:18:46;;;;;;;;;;;28.50;45.20;;;;;;5098278;28;19985;-71
2023/05/27 13:21:12;;;;;;;;;;;28.60;45.40;;;;;;5097893;28;20015;-71
2023/05/27 13:23:37;;;;;;;;;;;28.60;44.90;;;;;;5097810;28;19998;-71
2023/05/27 13:26:03;;;;;;;;;;;28.60;44.70;;;;;;5097422;28;19904;-71
2023/05/27 13:28:28;;;;;;;;;;;28.60;44.70;;;;;;5097994;28;19915;-71
2023/05/27 13:30:54;;;;;;;;;;;28.60;45.00;;;;;;5097185;28;20350;-71
2023/05/27 13:33:19;;;;;;;;;;;28.50;44.30;;;;;;5079153;28;19954;-71
2023/05/27 13:35:45;;;;;;;;;;;28.50;45.00;;;;;;5097448;28;19951;-71
2023/05/27 13:38:13;;;;;;;;;;;28.40;45.20;;;;;;5079123;28;20235;-71
2023/05/27 13:40:39;;;;;;;;;;;28.20;44.40;;;;;;5097286;28;19910;-71
2023/05/27 13:43:05;;;;;;;;;;;28.10;44.60;;;;;;5097159;28;19994;-71
2023/05/27 13:45:30;;;;;;;;;;;28.00;45.00;;;;;;5097130;28;19904;-71
2023/05/27 13:47:55;;;;;;;;;;;27.90;45.00;;;;;;5078979;28;19954;-71
2023/05/27 13:50:21;;;;;;;;;;;27.70;45.30;;;;;;5097251;28;20002;-69
2023/05/27 13:52:47;;;;;;;;;;;27.60;45.30;;;;;;5097002;28;19908;-70
2023/05/27 13:55:12;;;;;;;;;;;27.40;45.60;;;;;;5096935;28;19972;-71
2023/05/27 13:57:38;;;;;;;;;;;27.30;45.70;;;;;;5096525;28;19953;-71
2023/05/27 14:00:06;;;;;;;;;;;27.20;46.20;;;;;;5078210;28;19939;-71
2023/05/27 14:02:31;;;;;;;;;;;27.10;45.90;;;;;;5096733;28;19904;-71
2023/05/27 14:04:57;;;;;;;;;;;27.00;46.20;;;;;;5097201;28;19911;-71
2023/05/27 14:07:23;;;;;;;;;;;26.80;46.60;;;;;;5096638;28;19904;-71
2023/05/27 14:09:48;;;;;;;;;;;26.70;46.70;;;;;;5096542;28;19904;-71